sensor_id;sensor_type;location;lat;lon;timestamp;P1;durP1;ratioP1;P2;durP2;ratioP2
66739;SDS011;53653;52.188;8.602;2022-09-01T05:45:08;6.03;;;3.10;;
66739;SDS011;53653;52.188;8.602;2022-09-01T05:47:36;7.55;;;3.00;;
66739;SDS011;53653;52.188;8.602;2022-09-01T05:50:05;7.18;;;2.78;;
66739;SDS011;53653;52.188;8.602;2022-09-01T05:52:35;6.00;;;2.55;;
66739;SDS011;53653;52.188;8.602;2022-09-01T05:55:02;7.63;;;2.80;;
66739;SDS011;53653;52.188;8.602;2022-09-01T05:57:33;5.37;;;2.47;;
66739;SDS011;53653;52.188;8.602;2022-09-01T05:59:59;7.97;;;2.95;;
66739;SDS011;53653;52.188;8.602;2022-09-01T06:02:26;11.40;;;3.20;;
66739;SDS011;53653;52.188;8.602;2022-09-01T06:04:52;6.68;;;2.70;;
66739;SDS011;53653;52.188;8.602;2022-09-01T06:07:21;7.60;;;3.28;;
66739;SDS011;53653;52.188;8.602;2022-09-01T06:09:48;6.37;;;2.87;;
66739;SDS011;53653;52.188;8.602;2022-09-01T06:12:14;6.90;;;2.97;;
66739;SDS011;53653;52.188;8.602;2022-09-01T06:14:48;6.40;;;3.08;;
66739;SDS011;53653;52.188;8.602;2022-09-01T06:17:15;6.57;;;2.70;;
66739;SDS011;53653;52.188;8.602;2022-09-01T06:19:43;6.53;;;2.58;;
66739;SDS011;53653;52.188;8.602;2022-09-01T06:22:09;7.10;;;3.20;;
66739;SDS011;53653;52.188;8.602;2022-09-01T06:24:35;7.10;;;2.95;;
66739;SDS011;53653;52.188;8.602;2022-09-01T06:27:04;7.20;;;2.67;;
66739;SDS011;53653;52.188;8.602;2022-09-01T06:29:34;5.90;;;2.55;;
66739;SDS011;53653;52.188;8.602;2022-09-01T06:32:04;8.77;;;2.80;;
66739;SDS011;53653;52.188;8.602;2022-09-01T06:34:34;10.13;;;2.67;;
66739;SDS011;53653;52.188;8.602;2022-09-01T06:37:02;8.25;;;3.05;;
66739;SDS011;53653;52.188;8.602;2022-09-01T06:39:28;7.73;;;2.60;;
66739;SDS011;53653;52.188;8.602;2022-09-01T06:41:55;6.20;;;2.75;;
66739;SDS011;53653;52.188;8.602;2022-09-01T06:44:22;7.00;;;2.67;;
66739;SDS011;53653;52.188;8.602;2022-09-01T06:46:48;6.40;;;2.80;;
66739;SDS011;53653;52.188;8.602;2022-09-01T06:49:14;7.83;;;2.80;;
66739;SDS011;53653;52.188;8.602;2022-09-01T06:51:39;9.45;;;2.92;;
66739;SDS011;53653;52.188;8.602;2022-09-01T06:54:05;7.20;;;3.00;;
66739;SDS011;53653;52.188;8.602;2022-09-01T06:56:31;7.55;;;2.80;;
66739;SDS011;53653;52.188;8.602;2022-09-01T06:58:58;8.20;;;2.67;;
66739;SDS011;53653;52.188;8.602;2022-09-01T07:01:25;6.70;;;2.57;;
66739;SDS011;53653;52.188;8.602;2022-09-01T07:03:52;8.88;;;2.40;;
66739;SDS011;53653;52.188;8.602;2022-09-01T07:06:19;5.30;;;2.30;;
66739;SDS011;53653;52.188;8.602;2022-09-01T07:08:51;9.05;;;2.47;;
66739;SDS011;53653;52.188;8.602;2022-09-01T07:11:26;7.10;;;2.70;;
66739;SDS011;53653;52.188;8.602;2022-09-01T07:13:54;6.50;;;2.37;;
66739;SDS011;53653;52.188;8.602;2022-09-01T07:16:27;6.40;;;2.30;;
66739;SDS011;53653;52.188;8.602;2022-09-01T07:18:54;5.78;;;2.30;;
66739;SDS011;53653;52.188;8.602;2022-09-01T07:21:23;6.85;;;2.47;;
66739;SDS011;53653;52.188;8.602;2022-09-01T07:23:49;6.30;;;2.20;;
66739;SDS011;53653;52.188;8.602;2022-09-01T07:26:15;5.47;;;2.17;;
66739;SDS011;53653;52.188;8.602;2022-09-01T07:28:47;7.82;;;2.20;;
66739;SDS011;53653;52.188;8.602;2022-09-01T07:31:25;7.55;;;2.08;;
66739;SDS011;53653;52.188;8.602;2022-09-01T07:33:54;5.35;;;2.08;;
66739;SDS011;53653;52.188;8.602;2022-09-01T07:36:23;6.68;;;2.00;;
66739;SDS011;53653;52.188;8.602;2022-09-01T07:38:49;5.80;;;2.20;;
66739;SDS011;53653;52.188;8.602;2022-09-01T07:41:25;6.25;;;2.35;;
66739;SDS011;53653;52.188;8.602;2022-09-01T07:43:51;9.02;;;2.17;;
66739;SDS011;53653;52.188;8.602;2022-09-01T07:46:18;6.07;;;2.08;;
66739;SDS011;53653;52.188;8.602;2022-09-01T07:48:45;6.00;;;1.75;;
66739;SDS011;53653;52.188;8.602;2022-09-01T07:51:13;6.70;;;2.07;;
66739;SDS011;53653;52.188;8.602;2022-09-01T07:53:43;6.70;;;2.10;;
66739;SDS011;53653;52.188;8.602;2022-09-01T07:56:12;6.70;;;2.42;;
66739;SDS011;53653;52.188;8.602;2022-09-01T07:58:39;5.43;;;1.58;;
66739;SDS011;53653;52.188;8.602;2022-09-01T08:01:09;5.43;;;1.67;;
66739;SDS011;53653;52.188;8.602;2022-09-01T08:03:37;7.90;;;1.73;;
66739;SDS011;53653;52.188;8.602;2022-09-01T08:06:09;6.05;;;2.33;;
66739;SDS011;53653;52.188;8.602;2022-09-01T08:08:37;6.47;;;2.08;;
66739;SDS011;53653;52.188;8.602;2022-09-01T08:11:03;7.97;;;1.80;;
66739;SDS011;53653;52.188;8.602;2022-09-01T08:13:30;7.05;;;2.00;;
66739;SDS011;53653;52.188;8.602;2022-09-01T08:15:57;6.80;;;1.90;;
66739;SDS011;53653;52.188;8.602;2022-09-01T08:18:23;11.23;;;2.08;;
66739;SDS011;53653;52.188;8.602;2022-09-01T08:20:48;5.03;;;1.60;;
66739;SDS011;53653;52.188;8.602;2022-09-01T08:23:15;5.83;;;1.90;;
66739;SDS011;53653;52.188;8.602;2022-09-01T08:25:43;7.90;;;1.70;;
66739;SDS011;53653;52.188;8.602;2022-09-01T08:28:10;6.03;;;1.88;;
66739;SDS011;53653;52.188;8.602;2022-09-01T08:30:37;7.28;;;1.90;;
66739;SDS011;53653;52.188;8.602;2022-09-01T08:33:04;7.65;;;1.90;;
66739;SDS011;53653;52.188;8.602;2022-09-01T08:35:30;6.30;;;1.80;;
66739;SDS011;53653;52.188;8.602;2022-09-01T08:37:56;5.57;;;1.67;;
66739;SDS011;53653;52.188;8.602;2022-09-01T08:40:22;6.80;;;1.98;;
66739;SDS011;53653;52.188;8.602;2022-09-01T08:42:52;4.88;;;1.77;;
66739;SDS011;53653;52.188;8.602;2022-09-01T08:45:30;5.30;;;1.85;;
66739;SDS011;53653;52.188;8.602;2022-09-01T08:48:57;5.78;;;1.70;;
66739;SDS011;53653;52.188;8.602;2022-09-01T08:56:46;5.70;;;1.90;;
66739;SDS011;53653;52.188;8.602;2022-09-01T08:59:17;5.40;;;1.73;;
66739;SDS011;53653;52.188;8.602;2022-09-01T09:07:44;6.78;;;2.17;;
66739;SDS011;53653;52.188;8.602;2022-09-01T09:10:38;7.05;;;2.10;;
66739;SDS011;53653;52.188;8.602;2022-09-01T09:13:44;4.82;;;1.60;;
66739;SDS011;53653;52.188;8.602;2022-09-01T09:16:24;4.50;;;1.60;;
66739;SDS011;53653;52.188;8.602;2022-09-01T09:19:00;9.43;;;1.87;;
66739;SDS011;53653;52.188;8.602;2022-09-01T09:21:37;6.10;;;1.30;;
66739;SDS011;53653;52.188;8.602;2022-09-01T09:26:37;7.80;;;2.40;;
66739;SDS011;53653;52.188;8.602;2022-09-01T09:29:03;9.47;;;1.70;;
66739;SDS011;53653;52.188;8.602;2022-09-01T09:31:33;5.47;;;1.90;;
66739;SDS011;53653;52.188;8.602;2022-09-01T09:36:51;5.43;;;1.90;;
66739;SDS011;53653;52.188;8.602;2022-09-01T09:39:17;4.57;;;1.50;;
66739;SDS011;53653;52.188;8.602;2022-09-01T09:41:43;8.33;;;1.50;;
66739;SDS011;53653;52.188;8.602;2022-09-01T09:44:43;7.80;;;1.63;;
66739;SDS011;53653;52.188;8.602;2022-09-01T09:47:55;7.00;;;1.80;;
66739;SDS011;53653;52.188;8.602;2022-09-01T09:52:52;5.87;;;1.63;;
66739;SDS011;53653;52.188;8.602;2022-09-01T09:55:35;4.97;;;1.63;;
66739;SDS011;53653;52.188;8.602;2022-09-01T09:58:14;7.53;;;1.80;;
66739;SDS011;53653;52.188;8.602;2022-09-01T10:00:39;4.85;;;1.70;;
66739;SDS011;53653;52.188;8.602;2022-09-01T10:03:33;5.85;;;1.85;;
66739;SDS011;53653;52.188;8.602;2022-09-01T10:06:00;5.23;;;1.40;;
66739;SDS011;53653;52.188;8.602;2022-09-01T10:10:52;6.93;;;1.70;;
66739;SDS011;53653;52.188;8.602;2022-09-01T10:13:20;4.28;;;1.27;;
66739;SDS011;53653;52.188;8.602;2022-09-01T10:15:48;7.65;;;1.55;;
66739;SDS011;53653;52.188;8.602;2022-09-01T10:18:18;5.20;;;1.20;;
66739;SDS011;53653;52.188;8.602;2022-09-01T10:20:56;5.13;;;1.40;;
66739;SDS011;53653;52.188;8.602;2022-09-01T10:23:25;5.20;;;1.37;;
66739;SDS011;53653;52.188;8.602;2022-09-01T10:25:54;7.07;;;1.42;;
66739;SDS011;53653;52.188;8.602;2022-09-01T10:28:26;5.72;;;1.20;;
66739;SDS011;53653;52.188;8.602;2022-09-01T10:30:56;7.18;;;1.30;;
66739;SDS011;53653;52.188;8.602;2022-09-01T10:33:23;4.53;;;1.17;;
66739;SDS011;53653;52.188;8.602;2022-09-01T10:35:50;4.27;;;1.20;;
66739;SDS011;53653;52.188;8.602;2022-09-01T10:40:53;4.28;;;1.23;;
66739;SDS011;53653;52.188;8.602;2022-09-01T10:48:48;5.47;;;1.63;;
66739;SDS011;53653;52.188;8.602;2022-09-01T10:53:43;5.17;;;1.30;;
66739;SDS011;53653;52.188;8.602;2022-09-01T11:09:32;6.55;;;2.65;;
66739;SDS011;53653;52.188;8.602;2022-09-01T11:15:31;4.20;;;1.30;;
66739;SDS011;53653;52.188;8.602;2022-09-01T11:17:56;6.05;;;2.00;;
66739;SDS011;53653;52.188;8.602;2022-09-01T11:36:02;10.40;;;1.60;;
66739;SDS011;53653;52.188;8.602;2022-09-01T11:38:33;5.32;;;1.48;;
66739;SDS011;53653;52.188;8.602;2022-09-01T11:41:18;4.13;;;1.20;;
66739;SDS011;53653;52.188;8.602;2022-09-01T11:44:22;4.82;;;1.40;;
66739;SDS011;53653;52.188;8.602;2022-09-01T11:46:50;3.90;;;1.07;;
66739;SDS011;53653;52.188;8.602;2022-09-01T11:49:25;4.75;;;1.10;;
66739;SDS011;53653;52.188;8.602;2022-09-01T11:51:56;4.00;;;1.13;;
66739;SDS011;53653;52.188;8.602;2022-09-01T11:54:27;5.25;;;1.30;;
66739;SDS011;53653;52.188;8.602;2022-09-01T11:57:15;5.95;;;1.20;;
66739;SDS011;53653;52.188;8.602;2022-09-01T11:59:46;7.50;;;1.37;;
66739;SDS011;53653;52.188;8.602;2022-09-01T12:02:22;5.30;;;1.00;;
66739;SDS011;53653;52.188;8.602;2022-09-01T12:04:54;3.25;;;1.10;;
66739;SDS011;53653;52.188;8.602;2022-09-01T12:07:25;4.57;;;0.90;;
66739;SDS011;53653;52.188;8.602;2022-09-01T12:10:14;5.70;;;1.00;;
66739;SDS011;53653;52.188;8.602;2022-09-01T12:12:42;5.18;;;1.00;;
66739;SDS011;53653;52.188;8.602;2022-09-01T12:15:15;4.60;;;1.10;;
66739;SDS011;53653;52.188;8.602;2022-09-01T12:17:44;4.03;;;1.13;;
66739;SDS011;53653;52.188;8.602;2022-09-01T12:20:43;5.90;;;0.90;;
66739;SDS011;53653;52.188;8.602;2022-09-01T12:25:54;6.57;;;0.93;;
66739;SDS011;53653;52.188;8.602;2022-09-01T12:28:23;4.95;;;1.23;;
66739;SDS011;53653;52.188;8.602;2022-09-01T12:30:50;4.00;;;1.13;;
66739;SDS011;53653;52.188;8.602;2022-09-01T12:33:17;5.77;;;1.10;;
66739;SDS011;53653;52.188;8.602;2022-09-01T12:35:44;4.75;;;0.90;;
66739;SDS011;53653;52.188;8.602;2022-09-01T12:40:45;5.38;;;1.10;;
66739;SDS011;53653;52.188;8.602;2022-09-01T12:46:37;6.10;;;1.10;;
66739;SDS011;53653;52.188;8.602;2022-09-01T12:49:15;5.00;;;1.00;;
66739;SDS011;53653;52.188;8.602;2022-09-01T12:51:42;7.97;;;1.00;;
66739;SDS011;53653;52.188;8.602;2022-09-01T12:54:12;6.47;;;1.10;;
66739;SDS011;53653;52.188;8.602;2022-09-01T12:56:39;4.45;;;1.08;;
66739;SDS011;53653;52.188;8.602;2022-09-01T12:59:12;4.57;;;1.10;;
66739;SDS011;53653;52.188;8.602;2022-09-01T13:01:39;4.78;;;1.00;;
66739;SDS011;53653;52.188;8.602;2022-09-01T13:04:10;5.60;;;1.20;;
66739;SDS011;53653;52.188;8.602;2022-09-01T13:07:05;5.50;;;1.30;;
66739;SDS011;53653;52.188;8.602;2022-09-01T13:09:31;4.80;;;1.10;;
66739;SDS011;53653;52.188;8.602;2022-09-01T13:12:10;3.85;;;1.00;;
66739;SDS011;53653;52.188;8.602;2022-09-01T13:14:41;4.40;;;1.00;;
66739;SDS011;53653;52.188;8.602;2022-09-01T13:17:06;3.57;;;1.07;;
66739;SDS011;53653;52.188;8.602;2022-09-01T13:19:31;3.90;;;0.80;;
66739;SDS011;53653;52.188;8.602;2022-09-01T13:21:57;4.40;;;1.20;;
66739;SDS011;53653;52.188;8.602;2022-09-01T13:24:22;5.50;;;1.27;;
66739;SDS011;53653;52.188;8.602;2022-09-01T13:26:48;4.93;;;1.27;;
66739;SDS011;53653;52.188;8.602;2022-09-01T13:29:19;3.50;;;1.20;;
66739;SDS011;53653;52.188;8.602;2022-09-01T13:31:45;5.77;;;1.10;;
66739;SDS011;53653;52.188;8.602;2022-09-01T13:34:10;4.20;;;1.08;;
66739;SDS011;53653;52.188;8.602;2022-09-01T13:36:36;3.73;;;1.03;;
66739;SDS011;53653;52.188;8.602;2022-09-01T13:39:01;5.00;;;1.03;;
66739;SDS011;53653;52.188;8.602;2022-09-01T13:41:27;4.13;;;0.95;;
66739;SDS011;53653;52.188;8.602;2022-09-01T13:43:53;3.43;;;1.00;;
66739;SDS011;53653;52.188;8.602;2022-09-01T13:46:19;4.07;;;1.15;;
66739;SDS011;53653;52.188;8.602;2022-09-01T13:48:45;3.60;;;1.13;;
66739;SDS011;53653;52.188;8.602;2022-09-01T13:51:11;4.00;;;1.20;;
66739;SDS011;53653;52.188;8.602;2022-09-01T13:53:36;3.97;;;1.07;;
66739;SDS011;53653;52.188;8.602;2022-09-01T13:56:02;3.80;;;1.08;;
66739;SDS011;53653;52.188;8.602;2022-09-01T13:58:27;3.33;;;1.10;;
66739;SDS011;53653;52.188;8.602;2022-09-01T14:00:53;4.88;;;1.00;;
66739;SDS011;53653;52.188;8.602;2022-09-01T14:03:20;4.83;;;1.67;;
66739;SDS011;53653;52.188;8.602;2022-09-01T14:05:48;5.15;;;1.55;;
66739;SDS011;53653;52.188;8.602;2022-09-01T14:08:15;3.93;;;1.00;;
66739;SDS011;53653;52.188;8.602;2022-09-01T14:10:46;3.95;;;1.02;;
66739;SDS011;53653;52.188;8.602;2022-09-01T14:13:14;4.15;;;1.20;;
66739;SDS011;53653;52.188;8.602;2022-09-01T14:15:40;5.25;;;1.20;;
66739;SDS011;53653;52.188;8.602;2022-09-01T14:18:06;4.50;;;1.10;;
66739;SDS011;53653;52.188;8.602;2022-09-01T14:20:33;5.63;;;1.30;;
66739;SDS011;53653;52.188;8.602;2022-09-01T14:23:02;4.28;;;1.17;;
66739;SDS011;53653;52.188;8.602;2022-09-01T14:25:28;5.43;;;1.45;;
66739;SDS011;53653;52.188;8.602;2022-09-01T14:27:55;4.03;;;1.10;;
66739;SDS011;53653;52.188;8.602;2022-09-01T14:30:22;3.70;;;1.02;;
66739;SDS011;53653;52.188;8.602;2022-09-01T14:32:49;4.47;;;1.00;;
66739;SDS011;53653;52.188;8.602;2022-09-01T14:35:15;5.47;;;1.20;;
66739;SDS011;53653;52.188;8.602;2022-09-01T14:37:42;4.30;;;0.97;;
66739;SDS011;53653;52.188;8.602;2022-09-01T14:40:09;5.05;;;1.00;;
66739;SDS011;53653;52.188;8.602;2022-09-01T14:42:36;5.18;;;1.08;;
66739;SDS011;53653;52.188;8.602;2022-09-01T14:45:04;4.22;;;1.00;;
66739;SDS011;53653;52.188;8.602;2022-09-01T14:47:29;3.72;;;1.00;;
66739;SDS011;53653;52.188;8.602;2022-09-01T14:49:55;4.63;;;0.93;;
66739;SDS011;53653;52.188;8.602;2022-09-01T14:52:21;3.72;;;1.05;;
66739;SDS011;53653;52.188;8.602;2022-09-01T14:54:47;3.97;;;1.00;;
66739;SDS011;53653;52.188;8.602;2022-09-01T14:57:13;4.60;;;1.20;;
66739;SDS011;53653;52.188;8.602;2022-09-01T14:59:39;4.00;;;0.90;;
66739;SDS011;53653;52.188;8.602;2022-09-01T15:02:06;3.65;;;1.05;;
66739;SDS011;53653;52.188;8.602;2022-09-01T15:04:33;5.20;;;1.00;;
66739;SDS011;53653;52.188;8.602;2022-09-01T15:06:59;3.80;;;1.10;;
66739;SDS011;53653;52.188;8.602;2022-09-01T15:09:28;6.03;;;1.25;;
66739;SDS011;53653;52.188;8.602;2022-09-01T15:11:53;4.80;;;1.00;;
66739;SDS011;53653;52.188;8.602;2022-09-01T15:14:19;4.77;;;1.30;;
66739;SDS011;53653;52.188;8.602;2022-09-01T15:16:44;5.25;;;1.10;;
66739;SDS011;53653;52.188;8.602;2022-09-01T15:19:11;7.43;;;1.40;;
66739;SDS011;53653;52.188;8.602;2022-09-01T15:21:38;3.78;;;1.10;;
66739;SDS011;53653;52.188;8.602;2022-09-01T15:24:06;3.85;;;0.98;;
66739;SDS011;53653;52.188;8.602;2022-09-01T15:26:33;4.43;;;1.13;;
66739;SDS011;53653;52.188;8.602;2022-09-01T15:28:59;5.65;;;1.20;;
66739;SDS011;53653;52.188;8.602;2022-09-01T15:31:26;6.80;;;1.03;;
66739;SDS011;53653;52.188;8.602;2022-09-01T15:33:54;5.20;;;1.20;;
66739;SDS011;53653;52.188;8.602;2022-09-01T15:36:21;3.45;;;1.30;;
66739;SDS011;53653;52.188;8.602;2022-09-01T15:38:48;4.88;;;1.20;;
66739;SDS011;53653;52.188;8.602;2022-09-01T15:41:17;4.60;;;1.10;;
66739;SDS011;53653;52.188;8.602;2022-09-01T15:43:44;5.45;;;1.40;;
66739;SDS011;53653;52.188;8.602;2022-09-01T15:46:10;5.32;;;1.20;;
66739;SDS011;53653;52.188;8.602;2022-09-01T15:48:36;4.47;;;1.10;;
66739;SDS011;53653;52.188;8.602;2022-09-01T15:53:42;6.22;;;1.00;;
66739;SDS011;53653;52.188;8.602;2022-09-01T15:56:07;3.97;;;1.03;;
66739;SDS011;53653;52.188;8.602;2022-09-01T15:58:33;6.03;;;1.40;;
66739;SDS011;53653;52.188;8.602;2022-09-01T16:00:58;3.43;;;1.00;;
66739;SDS011;53653;52.188;8.602;2022-09-01T16:03:24;4.88;;;0.90;;
66739;SDS011;53653;52.188;8.602;2022-09-01T16:05:50;6.03;;;1.33;;
66739;SDS011;53653;52.188;8.602;2022-09-01T16:08:15;5.60;;;1.00;;
66739;SDS011;53653;52.188;8.602;2022-09-01T16:10:40;5.43;;;1.02;;
66739;SDS011;53653;52.188;8.602;2022-09-01T16:13:06;3.10;;;0.90;;
66739;SDS011;53653;52.188;8.602;2022-09-01T16:15:32;4.18;;;1.30;;
66739;SDS011;53653;52.188;8.602;2022-09-01T16:23:21;4.65;;;0.98;;
66739;SDS011;53653;52.188;8.602;2022-09-01T16:25:48;4.03;;;1.02;;
66739;SDS011;53653;52.188;8.602;2022-09-01T16:30:49;3.88;;;1.20;;
66739;SDS011;53653;52.188;8.602;2022-09-01T16:33:17;4.83;;;1.00;;
66739;SDS011;53653;52.188;8.602;2022-09-01T16:38:40;4.32;;;0.90;;
66739;SDS011;53653;52.188;8.602;2022-09-01T16:41:13;4.82;;;1.02;;
66739;SDS011;53653;52.188;8.602;2022-09-01T16:46:33;3.53;;;1.10;;
66739;SDS011;53653;52.188;8.602;2022-09-01T16:49:13;4.53;;;1.10;;
66739;SDS011;53653;52.188;8.602;2022-09-01T16:52:03;5.75;;;1.00;;
66739;SDS011;53653;52.188;8.602;2022-09-01T16:57:14;5.05;;;1.27;;
66739;SDS011;53653;52.188;8.602;2022-09-01T17:00:07;5.07;;;1.03;;
66739;SDS011;53653;52.188;8.602;2022-09-01T17:08:24;3.67;;;1.00;;
66739;SDS011;53653;52.188;8.602;2022-09-01T17:10:53;4.93;;;1.30;;
66739;SDS011;53653;52.188;8.602;2022-09-01T17:13:41;3.93;;;1.10;;
66739;SDS011;53653;52.188;8.602;2022-09-01T17:16:17;4.18;;;1.08;;
66739;SDS011;53653;52.188;8.602;2022-09-01T17:19:09;3.78;;;1.10;;
66739;SDS011;53653;52.188;8.602;2022-09-01T17:24:21;3.13;;;0.90;;
66739;SDS011;53653;52.188;8.602;2022-09-01T17:26:52;3.23;;;0.90;;
66739;SDS011;53653;52.188;8.602;2022-09-01T17:29:27;5.38;;;0.95;;
66739;SDS011;53653;52.188;8.602;2022-09-01T17:45:45;4.22;;;1.13;;
66739;SDS011;53653;52.188;8.602;2022-09-01T17:48:21;3.72;;;1.00;;
66739;SDS011;53653;52.188;8.602;2022-09-01T17:56:47;4.75;;;1.05;;
66739;SDS011;53653;52.188;8.602;2022-09-01T18:09:55;5.47;;;1.05;;
66739;SDS011;53653;52.188;8.602;2022-09-01T18:12:29;4.28;;;1.00;;
66739;SDS011;53653;52.188;8.602;2022-09-01T18:23:01;5.35;;;1.20;;
66739;SDS011;53653;52.188;8.602;2022-09-01T18:28:13;4.65;;;1.20;;
66739;SDS011;53653;52.188;8.602;2022-09-01T18:30:43;3.92;;;1.00;;
66739;SDS011;53653;52.188;8.602;2022-09-01T18:38:49;5.13;;;0.80;;
66739;SDS011;53653;52.188;8.602;2022-09-01T18:41:32;3.95;;;1.10;;
66739;SDS011;53653;52.188;8.602;2022-09-01T18:44:03;4.40;;;1.00;;
66739;SDS011;53653;52.188;8.602;2022-09-01T18:46:53;4.37;;;1.07;;
66739;SDS011;53653;52.188;8.602;2022-09-01T18:49:22;4.30;;;1.00;;
66739;SDS011;53653;52.188;8.602;2022-09-01T18:57:54;4.13;;;1.08;;
66739;SDS011;53653;52.188;8.602;2022-09-01T19:00:29;3.40;;;0.90;;
66739;SDS011;53653;52.188;8.602;2022-09-01T19:12:13;4.45;;;1.20;;
66739;SDS011;53653;52.188;8.602;2022-09-01T19:19:59;5.30;;;1.35;;
66739;SDS011;53653;52.188;8.602;2022-09-01T19:25:17;4.75;;;1.00;;
66739;SDS011;53653;52.188;8.602;2022-09-01T19:33:39;5.43;;;1.35;;
66739;SDS011;53653;52.188;8.602;2022-09-01T19:36:08;5.95;;;1.20;;
66739;SDS011;53653;52.188;8.602;2022-09-01T19:38:35;4.38;;;1.10;;
66739;SDS011;53653;52.188;8.602;2022-09-01T19:43:59;5.20;;;1.10;;
66739;SDS011;53653;52.188;8.602;2022-09-01T19:46:51;4.88;;;1.17;;
66739;SDS011;53653;52.188;8.602;2022-09-01T19:52:03;3.47;;;1.10;;
66739;SDS011;53653;52.188;8.602;2022-09-01T19:54:49;5.50;;;1.33;;
66739;SDS011;53653;52.188;8.602;2022-09-01T20:00:22;4.10;;;1.20;;
66739;SDS011;53653;52.188;8.602;2022-09-01T20:05:28;7.07;;;1.15;;
66739;SDS011;53653;52.188;8.602;2022-09-01T20:08:05;4.27;;;0.97;;
66739;SDS011;53653;52.188;8.602;2022-09-01T20:18:42;3.60;;;0.80;;
66739;SDS011;53653;52.188;8.602;2022-09-01T20:21:11;5.23;;;1.40;;
66739;SDS011;53653;52.188;8.602;2022-09-01T20:23:55;4.50;;;1.40;;
66739;SDS011;53653;52.188;8.602;2022-09-01T20:26:27;4.85;;;1.23;;
66739;SDS011;53653;52.188;8.602;2022-09-01T20:31:29;7.18;;;1.27;;
66739;SDS011;53653;52.188;8.602;2022-09-01T20:34:14;4.10;;;1.13;;
66739;SDS011;53653;52.188;8.602;2022-09-01T20:36:50;4.43;;;1.13;;
66739;SDS011;53653;52.188;8.602;2022-09-01T20:42:18;8.63;;;1.10;;
66739;SDS011;53653;52.188;8.602;2022-09-01T20:44:56;3.97;;;1.00;;
66739;SDS011;53653;52.188;8.602;2022-09-01T20:47:25;4.00;;;1.00;;
66739;SDS011;53653;52.188;8.602;2022-09-01T20:49:52;4.88;;;1.13;;
66739;SDS011;53653;52.188;8.602;2022-09-01T20:55:09;5.20;;;1.20;;
66739;SDS011;53653;52.188;8.602;2022-09-01T20:57:46;3.58;;;0.93;;
66739;SDS011;53653;52.188;8.602;2022-09-01T21:00:21;3.95;;;1.10;;
66739;SDS011;53653;52.188;8.602;2022-09-01T21:05:57;5.35;;;1.05;;
66739;SDS011;53653;52.188;8.602;2022-09-01T21:22:19;6.25;;;1.23;;
66739;SDS011;53653;52.188;8.602;2022-09-01T21:24:44;5.50;;;1.40;;
66739;SDS011;53653;52.188;8.602;2022-09-01T21:27:12;4.82;;;1.20;;
66739;SDS011;53653;52.188;8.602;2022-09-01T21:29:58;4.80;;;1.20;;
66739;SDS011;53653;52.188;8.602;2022-09-01T21:32:28;4.20;;;1.10;;
66739;SDS011;53653;52.188;8.602;2022-09-01T21:34:56;3.87;;;1.03;;
66739;SDS011;53653;52.188;8.602;2022-09-01T21:37:22;6.43;;;1.23;;
66739;SDS011;53653;52.188;8.602;2022-09-01T21:39:49;3.90;;;1.15;;
66739;SDS011;53653;52.188;8.602;2022-09-01T21:42:17;6.18;;;1.25;;
66739;SDS011;53653;52.188;8.602;2022-09-01T21:44:44;4.75;;;1.77;;
66739;SDS011;53653;52.188;8.602;2022-09-01T21:47:10;4.23;;;1.20;;
66739;SDS011;53653;52.188;8.602;2022-09-01T21:50:01;7.70;;;1.20;;
66739;SDS011;53653;52.188;8.602;2022-09-01T21:52:27;4.85;;;1.20;;
66739;SDS011;53653;52.188;8.602;2022-09-01T21:54:52;5.33;;;1.10;;
66739;SDS011;53653;52.188;8.602;2022-09-01T21:57:18;5.63;;;1.58;;
66739;SDS011;53653;52.188;8.602;2022-09-01T21:59:46;6.88;;;1.20;;
66739;SDS011;53653;52.188;8.602;2022-09-01T22:02:12;4.67;;;1.10;;
66739;SDS011;53653;52.188;8.602;2022-09-01T22:04:37;5.63;;;1.20;;
66739;SDS011;53653;52.188;8.602;2022-09-01T22:07:03;7.28;;;1.27;;
66739;SDS011;53653;52.188;8.602;2022-09-01T22:09:30;6.10;;;1.20;;
66739;SDS011;53653;52.188;8.602;2022-09-01T22:11:55;4.27;;;1.03;;
66739;SDS011;53653;52.188;8.602;2022-09-01T22:14:21;3.47;;;0.90;;
66739;SDS011;53653;52.188;8.602;2022-09-01T22:16:47;4.15;;;1.15;;
66739;SDS011;53653;52.188;8.602;2022-09-01T22:19:13;4.57;;;0.97;;
66739;SDS011;53653;52.188;8.602;2022-09-01T22:21:39;5.43;;;1.20;;
66739;SDS011;53653;52.188;8.602;2022-09-01T22:24:05;3.55;;;0.95;;
66739;SDS011;53653;52.188;8.602;2022-09-01T22:26:32;3.67;;;1.00;;
66739;SDS011;53653;52.188;8.602;2022-09-01T22:28:58;4.53;;;1.15;;
66739;SDS011;53653;52.188;8.602;2022-09-01T22:31:25;6.43;;;1.10;;
66739;SDS011;53653;52.188;8.602;2022-09-01T22:33:52;4.47;;;1.00;;
66739;SDS011;53653;52.188;8.602;2022-09-01T22:36:25;7.40;;;1.27;;
66739;SDS011;53653;52.188;8.602;2022-09-01T22:38:55;4.03;;;1.10;;
66739;SDS011;53653;52.188;8.602;2022-09-01T22:41:23;4.40;;;1.08;;
66739;SDS011;53653;52.188;8.602;2022-09-01T22:43:50;6.85;;;1.10;;
66739;SDS011;53653;52.188;8.602;2022-09-01T22:46:16;4.15;;;0.90;;
66739;SDS011;53653;52.188;8.602;2022-09-01T22:48:43;5.70;;;1.15;;
66739;SDS011;53653;52.188;8.602;2022-09-01T22:51:10;5.53;;;1.17;;
66739;SDS011;53653;52.188;8.602;2022-09-01T22:53:37;3.75;;;1.00;;
66739;SDS011;53653;52.188;8.602;2022-09-01T22:56:11;4.68;;;1.00;;
66739;SDS011;53653;52.188;8.602;2022-09-01T22:58:38;3.97;;;1.05;;
66739;SDS011;53653;52.188;8.602;2022-09-01T23:01:03;5.47;;;1.27;;
66739;SDS011;53653;52.188;8.602;2022-09-01T23:03:35;7.80;;;1.10;;
66739;SDS011;53653;52.188;8.602;2022-09-01T23:06:05;6.83;;;1.30;;
66739;SDS011;53653;52.188;8.602;2022-09-01T23:08:32;4.18;;;1.17;;
66739;SDS011;53653;52.188;8.602;2022-09-01T23:10:58;4.78;;;1.20;;
66739;SDS011;53653;52.188;8.602;2022-09-01T23:13:24;5.33;;;1.07;;
66739;SDS011;53653;52.188;8.602;2022-09-01T23:15:52;6.30;;;1.20;;
66739;SDS011;53653;52.188;8.602;2022-09-01T23:18:19;4.55;;;0.98;;
66739;SDS011;53653;52.188;8.602;2022-09-01T23:20:45;5.32;;;0.85;;
66739;SDS011;53653;52.188;8.602;2022-09-01T23:23:10;5.67;;;0.90;;
66739;SDS011;53653;52.188;8.602;2022-09-01T23:25:38;4.05;;;1.10;;
66739;SDS011;53653;52.188;8.602;2022-09-01T23:28:06;7.32;;;1.08;;
66739;SDS011;53653;52.188;8.602;2022-09-01T23:30:34;3.33;;;0.90;;
66739;SDS011;53653;52.188;8.602;2022-09-01T23:32:59;6.25;;;1.20;;
66739;SDS011;53653;52.188;8.602;2022-09-01T23:35:25;7.30;;;0.93;;
66739;SDS011;53653;52.188;8.602;2022-09-01T23:37:50;5.93;;;1.00;;
66739;SDS011;53653;52.188;8.602;2022-09-01T23:40:16;5.23;;;1.00;;
66739;SDS011;53653;52.188;8.602;2022-09-01T23:42:42;3.70;;;1.08;;
66739;SDS011;53653;52.188;8.602;2022-09-01T23:45:08;4.30;;;1.20;;
66739;SDS011;53653;52.188;8.602;2022-09-01T23:47:33;5.50;;;1.15;;
66739;SDS011;53653;52.188;8.602;2022-09-01T23:49:59;3.78;;;0.90;;
66739;SDS011;53653;52.188;8.602;2022-09-01T23:52:26;3.77;;;1.00;;
66739;SDS011;53653;52.188;8.602;2022-09-01T23:54:52;7.18;;;1.20;;
66739;SDS011;53653;52.188;8.602;2022-09-01T23:57:18;3.85;;;1.02;;
66739;SDS011;53653;52.188;8.602;2022-09-01T23:59:45;5.10;;;1.17;;
